sensor_id;sensor_type;location;lat;lon;timestamp;pressure;altitude;pressure_sealevel;temperature;humidity
44138;BME280;29800;55.942;37.314;2022-07-03T00:01:36;99546.38;;;20.47;57.61
44138;BME280;29800;55.942;37.314;2022-07-03T00:04:03;99541.50;;;20.21;58.98
44138;BME280;29800;55.942;37.314;2022-07-03T00:06:29;99539.91;;;19.97;60.30
44138;BME280;29800;55.942;37.314;2022-07-03T00:08:58;99535.69;;;19.77;61.89
44138;BME280;29800;55.942;37.314;2022-07-03T00:11:25;99539.63;;;19.62;62.66
44138;BME280;29800;55.942;37.314;2022-07-03T00:13:51;99528.28;;;19.50;63.43
44138;BME280;29800;55.942;37.314;2022-07-03T00:16:17;99524.75;;;19.36;64.26
44138;BME280;29800;55.942;37.314;2022-07-03T00:18:43;99520.75;;;19.28;65.03
44138;BME280;29800;55.942;37.314;2022-07-03T00:21:11;99515.75;;;19.16;64.96
44138;BME280;29800;55.942;37.314;2022-07-03T00:23:46;99510.84;;;19.13;65.85
44138;BME280;29800;55.942;37.314;2022-07-03T00:26:13;99514.97;;;19.02;65.98
44138;BME280;29800;55.942;37.314;2022-07-03T00:28:41;99515.09;;;18.97;66.71
44138;BME280;29800;55.942;37.314;2022-07-03T00:31:10;99514.22;;;18.87;67.05
44138;BME280;29800;55.942;37.314;2022-07-03T00:33:38;99517.69;;;18.79;67.18
44138;BME280;29800;55.942;37.314;2022-07-03T00:36:04;99509.25;;;18.70;67.29
44138;BME280;29800;55.942;37.314;2022-07-03T00:38:31;99514.72;;;18.62;68.06
44138;BME280;29800;55.942;37.314;2022-07-03T00:40:59;99509.69;;;18.64;67.51
44138;BME280;29800;55.942;37.314;2022-07-03T00:43:26;99514.31;;;18.54;68.46
44138;BME280;29800;55.942;37.314;2022-07-03T00:45:53;99503.31;;;18.49;69.15
44138;BME280;29800;55.942;37.314;2022-07-03T00:48:20;99511.75;;;18.44;69.64
44138;BME280;29800;55.942;37.314;2022-07-03T00:50:48;99510.13;;;18.43;70.34
44138;BME280;29800;55.942;37.314;2022-07-03T00:53:29;99506.19;;;18.44;71.01
44138;BME280;29800;55.942;37.314;2022-07-03T00:55:56;99504.34;;;18.40;70.56
44138;BME280;29800;55.942;37.314;2022-07-03T00:58:22;99505.69;;;18.42;71.32
44138;BME280;29800;55.942;37.314;2022-07-03T01:00:51;99509.41;;;18.51;71.13
44138;BME280;29800;55.942;37.314;2022-07-03T01:03:20;99504.34;;;18.53;71.22
44138;BME280;29800;55.942;37.314;2022-07-03T01:05:52;99506.50;;;18.57;71.39
44138;BME280;29800;55.942;37.314;2022-07-03T01:08:31;99506.00;;;18.54;71.16
44138;BME280;29800;55.942;37.314;2022-07-03T01:21:56;99497.47;;;18.92;68.66
44138;BME280;29800;55.942;37.314;2022-07-03T01:27:07;99501.66;;;18.90;67.63
44138;BME280;29800;55.942;37.314;2022-07-03T01:30:01;99504.13;;;18.91;66.31
44138;BME280;29800;55.942;37.314;2022-07-03T01:32:43;99506.50;;;18.84;66.19
44138;BME280;29800;55.942;37.314;2022-07-03T01:35:19;99505.97;;;18.96;64.59
44138;BME280;29800;55.942;37.314;2022-07-03T01:37:47;99502.25;;;19.01;64.37
44138;BME280;29800;55.942;37.314;2022-07-03T01:40:14;99504.28;;;19.09;63.97
44138;BME280;29800;55.942;37.314;2022-07-03T01:42:45;99502.22;;;19.15;63.85
44138;BME280;29800;55.942;37.314;2022-07-03T01:45:13;99504.91;;;19.06;66.12
44138;BME280;29800;55.942;37.314;2022-07-03T01:47:41;99504.72;;;19.02;65.39
44138;BME280;29800;55.942;37.314;2022-07-03T01:50:12;99513.34;;;19.01;64.81
44138;BME280;29800;55.942;37.314;2022-07-03T01:52:43;99512.31;;;18.97;64.18
44138;BME280;29800;55.942;37.314;2022-07-03T01:55:14;99507.41;;;18.94;64.98
44138;BME280;29800;55.942;37.314;2022-07-03T01:57:46;99515.22;;;18.91;63.96
44138;BME280;29800;55.942;37.314;2022-07-03T02:00:15;99509.28;;;18.84;65.81
44138;BME280;29800;55.942;37.314;2022-07-03T02:02:45;99509.88;;;18.81;66.88
44138;BME280;29800;55.942;37.314;2022-07-03T02:05:34;99514.00;;;18.84;67.21
44138;BME280;29800;55.942;37.314;2022-07-03T02:08:19;99502.16;;;18.78;67.41
44138;BME280;29800;55.942;37.314;2022-07-03T02:11:11;99501.66;;;18.76;65.33
44138;BME280;29800;55.942;37.314;2022-07-03T02:14:10;99495.09;;;18.72;64.01
44138;BME280;29800;55.942;37.314;2022-07-03T02:19:41;99503.50;;;18.67;64.49
44138;BME280;29800;55.942;37.314;2022-07-03T02:22:11;99500.84;;;18.62;65.61
44138;BME280;29800;55.942;37.314;2022-07-03T02:24:43;99496.97;;;18.63;65.62
44138;BME280;29800;55.942;37.314;2022-07-03T02:27:16;99500.84;;;18.62;66.77
44138;BME280;29800;55.942;37.314;2022-07-03T02:29:46;99497.59;;;18.60;66.48
44138;BME280;29800;55.942;37.314;2022-07-03T02:32:21;99487.50;;;18.64;63.90
44138;BME280;29800;55.942;37.314;2022-07-03T02:35:04;99491.94;;;18.65;64.72
44138;BME280;29800;55.942;37.314;2022-07-03T02:37:33;99497.78;;;18.63;64.90
44138;BME280;29800;55.942;37.314;2022-07-03T02:40:14;99496.31;;;18.66;64.54
44138;BME280;29800;55.942;37.314;2022-07-03T02:42:54;99503.72;;;18.70;64.35
44138;BME280;29800;55.942;37.314;2022-07-03T02:45:22;99498.47;;;18.69;63.88
44138;BME280;29800;55.942;37.314;2022-07-03T02:48:04;99493.47;;;18.71;63.22
44138;BME280;29800;55.942;37.314;2022-07-03T02:50:33;99497.56;;;18.73;62.23
44138;BME280;29800;55.942;37.314;2022-07-03T02:53:26;99491.88;;;18.79;61.30
44138;BME280;29800;55.942;37.314;2022-07-03T02:56:05;99494.03;;;18.82;61.58
44138;BME280;29800;55.942;37.314;2022-07-03T02:58:48;99493.03;;;18.91;62.13
44138;BME280;29800;55.942;37.314;2022-07-03T03:01:29;99496.94;;;18.90;61.89
44138;BME280;29800;55.942;37.314;2022-07-03T03:04:21;99493.41;;;18.99;62.47
44138;BME280;29800;55.942;37.314;2022-07-03T03:07:07;99503.50;;;18.95;62.64
44138;BME280;29800;55.942;37.314;2022-07-03T03:09:51;99499.81;;;18.99;62.66
44138;BME280;29800;55.942;37.314;2022-07-03T03:12:31;99494.25;;;18.99;63.18
44138;BME280;29800;55.942;37.314;2022-07-03T03:15:03;99493.41;;;18.99;62.35
44138;BME280;29800;55.942;37.314;2022-07-03T03:17:43;99495.44;;;19.07;62.34
44138;BME280;29800;55.942;37.314;2022-07-03T03:20:15;99498.75;;;19.09;62.06
44138;BME280;29800;55.942;37.314;2022-07-03T03:25:38;99498.00;;;19.17;61.20
44138;BME280;29800;55.942;37.314;2022-07-03T03:28:06;99495.72;;;19.19;61.70
44138;BME280;29800;55.942;37.314;2022-07-03T03:30:35;99497.88;;;19.22;62.34
44138;BME280;29800;55.942;37.314;2022-07-03T03:33:01;99490.06;;;19.24;61.99
44138;BME280;29800;55.942;37.314;2022-07-03T03:35:28;99496.63;;;19.28;62.16
44138;BME280;29800;55.942;37.314;2022-07-03T03:37:54;99496.19;;;19.35;61.34
44138;BME280;29800;55.942;37.314;2022-07-03T03:40:20;99493.47;;;19.44;61.99
44138;BME280;29800;55.942;37.314;2022-07-03T03:42:47;99491.50;;;19.44;61.69
44138;BME280;29800;55.942;37.314;2022-07-03T03:45:13;99488.94;;;19.48;62.09
44138;BME280;29800;55.942;37.314;2022-07-03T03:47:39;99489.31;;;19.55;61.50
44138;BME280;29800;55.942;37.314;2022-07-03T03:50:05;99489.31;;;19.55;61.15
44138;BME280;29800;55.942;37.314;2022-07-03T03:52:32;99482.31;;;19.58;62.65
44138;BME280;29800;55.942;37.314;2022-07-03T03:54:58;99481.34;;;19.62;61.88
44138;BME280;29800;55.942;37.314;2022-07-03T03:57:25;99482.84;;;19.69;62.69
44138;BME280;29800;55.942;37.314;2022-07-03T03:59:51;99478.53;;;19.76;62.20
44138;BME280;29800;55.942;37.314;2022-07-03T04:02:18;99473.50;;;19.87;61.39
44138;BME280;29800;55.942;37.314;2022-07-03T04:04:45;99473.75;;;19.99;60.25
44138;BME280;29800;55.942;37.314;2022-07-03T04:07:11;99472.78;;;20.04;61.33
44138;BME280;29800;55.942;37.314;2022-07-03T04:09:37;99469.38;;;20.07;60.79
44138;BME280;29800;55.942;37.314;2022-07-03T04:12:04;99478.56;;;20.16;60.83
44138;BME280;29800;55.942;37.314;2022-07-03T04:14:31;99470.91;;;20.22;60.29
44138;BME280;29800;55.942;37.314;2022-07-03T04:16:57;99480.06;;;20.23;60.89
44138;BME280;29800;55.942;37.314;2022-07-03T04:19:23;99477.13;;;20.28;61.17
44138;BME280;29800;55.942;37.314;2022-07-03T04:21:49;99472.91;;;20.30;61.18
44138;BME280;29800;55.942;37.314;2022-07-03T04:24:17;99471.09;;;20.34;61.96
44138;BME280;29800;55.942;37.314;2022-07-03T04:26:44;99476.03;;;20.37;61.71
44138;BME280;29800;55.942;37.314;2022-07-03T04:29:10;99477.84;;;20.42;62.01
44138;BME280;29800;55.942;37.314;2022-07-03T04:31:36;99477.38;;;20.49;61.87
44138;BME280;29800;55.942;37.314;2022-07-03T04:34:02;99471.00;;;20.57;62.36
44138;BME280;29800;55.942;37.314;2022-07-03T04:36:28;99465.16;;;20.67;62.85
44138;BME280;29800;55.942;37.314;2022-07-03T04:38:55;99465.00;;;20.72;61.93
44138;BME280;29800;55.942;37.314;2022-07-03T04:41:21;99471.41;;;20.82;61.10
44138;BME280;29800;55.942;37.314;2022-07-03T04:43:47;99461.78;;;20.88;61.57
44138;BME280;29800;55.942;37.314;2022-07-03T04:46:13;99456.53;;;20.95;61.90
44138;BME280;29800;55.942;37.314;2022-07-03T04:48:39;99466.03;;;21.03;62.78
44138;BME280;29800;55.942;37.314;2022-07-03T04:51:06;99465.53;;;21.09;62.14
44138;BME280;29800;55.942;37.314;2022-07-03T04:53:32;99459.81;;;21.15;61.94
44138;BME280;29800;55.942;37.314;2022-07-03T04:55:58;99459.31;;;21.21;60.92
44138;BME280;29800;55.942;37.314;2022-07-03T04:58:24;99458.81;;;21.28;61.69
44138;BME280;29800;55.942;37.314;2022-07-03T05:00:51;99461.63;;;21.37;62.07
44138;BME280;29800;55.942;37.314;2022-07-03T05:03:17;99467.81;;;21.42;62.28
44138;BME280;29800;55.942;37.314;2022-07-03T05:05:43;99465.38;;;21.50;62.99
44138;BME280;29800;55.942;37.314;2022-07-03T05:08:09;99460.47;;;21.55;62.26
44138;BME280;29800;55.942;37.314;2022-07-03T05:10:35;99466.47;;;21.66;62.34
44138;BME280;29800;55.942;37.314;2022-07-03T05:13:01;99462.88;;;21.74;61.93
44138;BME280;29800;55.942;37.314;2022-07-03T05:15:27;99464.00;;;21.82;62.09
44138;BME280;29800;55.942;37.314;2022-07-03T05:17:53;99464.00;;;21.91;62.45
44138;BME280;29800;55.942;37.314;2022-07-03T05:20:19;99457.06;;;21.97;61.88
44138;BME280;29800;55.942;37.314;2022-07-03T05:22:56;99459.31;;;22.03;61.06
44138;BME280;29800;55.942;37.314;2022-07-03T05:25:23;99451.63;;;22.09;59.22
44138;BME280;29800;55.942;37.314;2022-07-03T05:27:49;99450.75;;;22.17;58.59
44138;BME280;29800;55.942;37.314;2022-07-03T05:30:16;99457.47;;;22.25;59.74
44138;BME280;29800;55.942;37.314;2022-07-03T05:32:43;99465.16;;;22.19;55.26
44138;BME280;29800;55.942;37.314;2022-07-03T05:35:09;99452.53;;;22.31;60.41
44138;BME280;29800;55.942;37.314;2022-07-03T05:37:35;99451.72;;;22.21;58.09
44138;BME280;29800;55.942;37.314;2022-07-03T05:40:01;99455.47;;;22.26;59.39
44138;BME280;29800;55.942;37.314;2022-07-03T05:42:28;99454.84;;;22.29;59.37
44138;BME280;29800;55.942;37.314;2022-07-03T05:44:54;99455.59;;;22.38;60.04
44138;BME280;29800;55.942;37.314;2022-07-03T05:47:21;99452.63;;;22.43;59.45
44138;BME280;29800;55.942;37.314;2022-07-03T05:49:47;99444.34;;;22.55;60.86
44138;BME280;29800;55.942;37.314;2022-07-03T05:52:13;99444.81;;;22.57;60.32
44138;BME280;29800;55.942;37.314;2022-07-03T05:54:39;99438.91;;;22.59;58.27
44138;BME280;29800;55.942;37.314;2022-07-03T05:57:05;99445.38;;;22.72;59.51
44138;BME280;29800;55.942;37.314;2022-07-03T05:59:31;99442.41;;;22.77;59.23
44138;BME280;29800;55.942;37.314;2022-07-03T06:01:57;99441.38;;;22.82;59.37
44138;BME280;29800;55.942;37.314;2022-07-03T06:04:23;99438.84;;;22.89;59.60
44138;BME280;29800;55.942;37.314;2022-07-03T06:06:50;99442.63;;;22.93;57.90
44138;BME280;29800;55.942;37.314;2022-07-03T06:09:16;99435.47;;;23.04;59.77
44138;BME280;29800;55.942;37.314;2022-07-03T06:11:42;99440.53;;;23.11;60.57
44138;BME280;29800;55.942;37.314;2022-07-03T06:14:08;99438.66;;;23.15;57.12
44138;BME280;29800;55.942;37.314;2022-07-03T06:16:34;99441.75;;;23.22;57.26
44138;BME280;29800;55.942;37.314;2022-07-03T06:19:00;99442.47;;;23.31;58.99
44138;BME280;29800;55.942;37.314;2022-07-03T06:21:27;99443.22;;;23.41;58.68
44138;BME280;29800;55.942;37.314;2022-07-03T06:23:53;99450.69;;;23.49;59.32
44138;BME280;29800;55.942;37.314;2022-07-03T06:26:19;99441.19;;;23.62;59.86
44138;BME280;29800;55.942;37.314;2022-07-03T06:28:45;99445.97;;;23.74;59.08
44138;BME280;29800;55.942;37.314;2022-07-03T06:31:11;99440.34;;;23.83;58.11
44138;BME280;29800;55.942;37.314;2022-07-03T06:33:37;99445.34;;;23.90;57.66
44138;BME280;29800;55.942;37.314;2022-07-03T06:36:03;99450.94;;;23.90;56.21
44138;BME280;29800;55.942;37.314;2022-07-03T06:38:30;99437.53;;;23.95;55.30
44138;BME280;29800;55.942;37.314;2022-07-03T06:40:56;99445.00;;;24.03;53.87
44138;BME280;29800;55.942;37.314;2022-07-03T06:43:22;99437.56;;;24.20;54.94
44138;BME280;29800;55.942;37.314;2022-07-03T06:45:48;99434.53;;;24.25;54.35
44138;BME280;29800;55.942;37.314;2022-07-03T06:48:14;99447.38;;;24.38;55.42
44138;BME280;29800;55.942;37.314;2022-07-03T06:50:40;99445.94;;;24.45;53.51
44138;BME280;29800;55.942;37.314;2022-07-03T06:53:06;99446.19;;;24.64;54.68
44138;BME280;29800;55.942;37.314;2022-07-03T06:55:32;99442.19;;;24.77;56.13
44138;BME280;29800;55.942;37.314;2022-07-03T06:57:59;99447.44;;;24.79;53.88
44138;BME280;29800;55.942;37.314;2022-07-03T07:00:25;99430.00;;;25.10;56.32
44138;BME280;29800;55.942;37.314;2022-07-03T07:02:51;99439.66;;;25.13;54.89
44138;BME280;29800;55.942;37.314;2022-07-03T07:05:17;99430.41;;;25.25;54.20
44138;BME280;29800;55.942;37.314;2022-07-03T07:07:43;99433.19;;;25.25;52.25
44138;BME280;29800;55.942;37.314;2022-07-03T07:10:09;99428.31;;;25.34;51.99
44138;BME280;29800;55.942;37.314;2022-07-03T07:12:37;99430.22;;;25.46;52.98
44138;BME280;29800;55.942;37.314;2022-07-03T07:15:03;99430.88;;;25.55;52.97
44138;BME280;29800;55.942;37.314;2022-07-03T07:17:29;99424.84;;;25.69;53.22
44138;BME280;29800;55.942;37.314;2022-07-03T07:19:55;99427.72;;;25.73;53.04
44138;BME280;29800;55.942;37.314;2022-07-03T07:22:22;99428.34;;;25.66;51.27
44138;BME280;29800;55.942;37.314;2022-07-03T07:24:48;99436.78;;;25.82;51.32
44138;BME280;29800;55.942;37.314;2022-07-03T07:27:14;99431.09;;;25.78;50.07
44138;BME280;29800;55.942;37.314;2022-07-03T07:29:41;99426.25;;;26.07;51.06
44138;BME280;29800;55.942;37.314;2022-07-03T07:32:07;99425.88;;;26.25;49.76
44138;BME280;29800;55.942;37.314;2022-07-03T07:34:33;99431.03;;;26.38;50.62
44138;BME280;29800;55.942;37.314;2022-07-03T07:36:59;99422.41;;;26.47;51.40
44138;BME280;29800;55.942;37.314;2022-07-03T07:39:25;99432.06;;;26.66;50.00
44138;BME280;29800;55.942;37.314;2022-07-03T07:41:51;99430.31;;;26.77;48.31
44138;BME280;29800;55.942;37.314;2022-07-03T07:44:17;99426.91;;;26.68;48.23
44138;BME280;29800;55.942;37.314;2022-07-03T07:46:44;99424.56;;;26.70;46.53
44138;BME280;29800;55.942;37.314;2022-07-03T07:49:10;99424.66;;;26.57;46.55
44138;BME280;29800;55.942;37.314;2022-07-03T07:51:36;99423.97;;;26.80;46.39
44138;BME280;29800;55.942;37.314;2022-07-03T07:54:02;99420.03;;;27.01;45.81
44138;BME280;29800;55.942;37.314;2022-07-03T07:56:28;99426.38;;;26.98;45.35
44138;BME280;29800;55.942;37.314;2022-07-03T07:58:54;99429.31;;;27.05;44.80
44138;BME280;29800;55.942;37.314;2022-07-03T08:01:20;99427.63;;;27.20;43.21
44138;BME280;29800;55.942;37.314;2022-07-03T08:04:05;99424.84;;;27.39;42.56
44138;BME280;29800;55.942;37.314;2022-07-03T08:06:49;99423.72;;;27.44;42.50
44138;BME280;29800;55.942;37.314;2022-07-03T08:09:16;99424.88;;;27.62;42.55
44138;BME280;29800;55.942;37.314;2022-07-03T08:11:42;99429.97;;;27.76;41.28
44138;BME280;29800;55.942;37.314;2022-07-03T08:14:08;99425.13;;;27.77;41.86
44138;BME280;29800;55.942;37.314;2022-07-03T08:16:36;99434.38;;;27.77;42.57
44138;BME280;29800;55.942;37.314;2022-07-03T08:19:05;99436.84;;;28.02;41.56
44138;BME280;29800;55.942;37.314;2022-07-03T08:21:31;99433.22;;;28.01;41.05
44138;BME280;29800;55.942;37.314;2022-07-03T08:23:58;99439.97;;;28.20;39.01
44138;BME280;29800;55.942;37.314;2022-07-03T08:26:24;99441.75;;;28.32;38.57
44138;BME280;29800;55.942;37.314;2022-07-03T08:28:50;99437.34;;;28.31;38.89
44138;BME280;29800;55.942;37.314;2022-07-03T08:31:16;99434.16;;;28.32;38.86
44138;BME280;29800;55.942;37.314;2022-07-03T08:33:42;99443.91;;;28.38;39.00
44138;BME280;29800;55.942;37.314;2022-07-03T08:36:09;99431.22;;;28.52;40.20
44138;BME280;29800;55.942;37.314;2022-07-03T08:38:35;99437.28;;;28.54;39.08
44138;BME280;29800;55.942;37.314;2022-07-03T08:41:03;99437.78;;;28.59;38.88
44138;BME280;29800;55.942;37.314;2022-07-03T08:43:29;99428.16;;;28.60;38.30
44138;BME280;29800;55.942;37.314;2022-07-03T08:45:57;99429.09;;;28.68;37.94
44138;BME280;29800;55.942;37.314;2022-07-03T08:48:25;99429.75;;;28.88;38.15
44138;BME280;29800;55.942;37.314;2022-07-03T08:50:53;99425.47;;;28.98;37.48
44138;BME280;29800;55.942;37.314;2022-07-03T08:53:20;99429.75;;;29.19;36.34
44138;BME280;29800;55.942;37.314;2022-07-03T08:55:50;99425.06;;;29.30;36.83
44138;BME280;29800;55.942;37.314;2022-07-03T08:58:16;99421.91;;;29.35;35.25
44138;BME280;29800;55.942;37.314;2022-07-03T09:00:45;99421.91;;;29.35;35.40
44138;BME280;29800;55.942;37.314;2022-07-03T09:03:12;99429.34;;;29.50;33.18
44138;BME280;29800;55.942;37.314;2022-07-03T09:05:39;99416.94;;;29.59;34.94
44138;BME280;29800;55.942;37.314;2022-07-03T09:08:08;99422.41;;;29.78;33.95
44138;BME280;29800;55.942;37.314;2022-07-03T09:10:35;99431.47;;;29.61;35.07
44138;BME280;29800;55.942;37.314;2022-07-03T09:13:01;99432.50;;;29.45;34.94
44138;BME280;29800;55.942;37.314;2022-07-03T09:15:28;99426.41;;;29.40;35.09
44138;BME280;29800;55.942;37.314;2022-07-03T09:18:03;99414.97;;;29.63;36.66
44138;BME280;29800;55.942;37.314;2022-07-03T09:20:37;99429.44;;;29.61;35.05
44138;BME280;29800;55.942;37.314;2022-07-03T09:23:12;99422.44;;;29.82;33.46
44138;BME280;29800;55.942;37.314;2022-07-03T09:25:58;99423.34;;;29.93;33.78
44138;BME280;29800;55.942;37.314;2022-07-03T09:28:46;99429.16;;;30.11;33.48
44138;BME280;29800;55.942;37.314;2022-07-03T09:31:22;99431.66;;;30.23;31.53
44138;BME280;29800;55.942;37.314;2022-07-03T09:36:37;99424.41;;;30.22;33.01
44138;BME280;29800;55.942;37.314;2022-07-03T09:39:37;99430.09;;;30.30;33.76
44138;BME280;29800;55.942;37.314;2022-07-03T09:42:07;99424.19;;;30.42;32.81
44138;BME280;29800;55.942;37.314;2022-07-03T09:44:37;99422.91;;;30.36;32.42
44138;BME280;29800;55.942;37.314;2022-07-03T09:47:22;99431.75;;;30.34;33.60
44138;BME280;29800;55.942;37.314;2022-07-03T09:50:02;99426.41;;;30.22;32.82
44138;BME280;29800;55.942;37.314;2022-07-03T09:52:43;99418.00;;;30.26;32.30
44138;BME280;29800;55.942;37.314;2022-07-03T09:58:20;99417.50;;;30.16;32.62
44138;BME280;29800;55.942;37.314;2022-07-03T10:00:30;99426.84;;;30.24;33.30
44138;BME280;29800;55.942;37.314;2022-07-03T10:03:07;99429.31;;;30.33;31.12
44138;BME280;29800;55.942;37.314;2022-07-03T10:05:39;99423.75;;;30.40;30.84
44138;BME280;29800;55.942;37.314;2022-07-03T10:08:10;99427.41;;;30.44;30.48
44138;BME280;29800;55.942;37.314;2022-07-03T10:10:44;99416.66;;;30.64;30.00
44138;BME280;29800;55.942;37.314;2022-07-03T10:13:11;99423.94;;;30.69;30.95
44138;BME280;29800;55.942;37.314;2022-07-03T10:15:39;99417.53;;;30.79;29.50
44138;BME280;29800;55.942;37.314;2022-07-03T10:18:07;99423.25;;;30.86;29.31
44138;BME280;29800;55.942;37.314;2022-07-03T10:20:56;99420.81;;;30.85;29.75
44138;BME280;29800;55.942;37.314;2022-07-03T10:23:21;99414.72;;;30.79;30.04
44138;BME280;29800;55.942;37.314;2022-07-03T10:25:48;99423.66;;;30.88;30.96
44138;BME280;29800;55.942;37.314;2022-07-03T10:28:17;99411.09;;;30.82;29.13
44138;BME280;29800;55.942;37.314;2022-07-03T10:30:46;99416.38;;;30.91;31.75
44138;BME280;29800;55.942;37.314;2022-07-03T10:33:12;99423.28;;;30.93;31.74
44138;BME280;29800;55.942;37.314;2022-07-03T10:35:44;99420.94;;;31.03;30.37
44138;BME280;29800;55.942;37.314;2022-07-03T10:44:16;99406.53;;;31.40;27.43
44138;BME280;29800;55.942;37.314;2022-07-03T10:47:01;99405.75;;;31.47;29.12
44138;BME280;29800;55.942;37.314;2022-07-03T10:49:27;99409.78;;;31.46;29.43
44138;BME280;29800;55.942;37.314;2022-07-03T10:51:56;99403.28;;;31.42;30.56
44138;BME280;29800;55.942;37.314;2022-07-03T10:54:28;99403.31;;;31.49;26.97
44138;BME280;29800;55.942;37.314;2022-07-03T11:07:28;99396.44;;;31.46;29.52
44138;BME280;29800;55.942;37.314;2022-07-03T11:13:00;99389.66;;;31.80;29.02
44138;BME280;29800;55.942;37.314;2022-07-03T11:15:29;99385.59;;;31.77;27.97
44138;BME280;29800;55.942;37.314;2022-07-03T11:25:57;99391.28;;;31.92;29.43
44138;BME280;29800;55.942;37.314;2022-07-03T11:33:58;99381.16;;;31.91;28.56
44138;BME280;29800;55.942;37.314;2022-07-03T11:36:32;99383.59;;;31.70;27.10
44138;BME280;29800;55.942;37.314;2022-07-03T11:41:42;99396.13;;;31.73;28.76
44138;BME280;29800;55.942;37.314;2022-07-03T11:44:14;99391.66;;;31.72;27.54
44138;BME280;29800;55.942;37.314;2022-07-03T11:46:41;99380.69;;;31.49;29.44
44138;BME280;29800;55.942;37.314;2022-07-03T11:49:09;99391.25;;;31.52;29.28
44138;BME280;29800;55.942;37.314;2022-07-03T11:51:38;99376.69;;;31.61;26.79
44138;BME280;29800;55.942;37.314;2022-07-03T11:54:05;99374.31;;;31.66;27.88
44138;BME280;29800;55.942;37.314;2022-07-03T11:56:32;99379.56;;;31.72;29.12
44138;BME280;29800;55.942;37.314;2022-07-03T11:59:01;99374.31;;;31.74;28.48
44138;BME280;29800;55.942;37.314;2022-07-03T12:01:30;99388.84;;;31.76;28.27
44138;BME280;29800;55.942;37.314;2022-07-03T12:06:42;99373.88;;;31.64;27.59
44138;BME280;29800;55.942;37.314;2022-07-03T12:09:18;99371.84;;;31.54;26.92
44138;BME280;29800;55.942;37.314;2022-07-03T12:11:58;99371.84;;;31.54;26.03
44138;BME280;29800;55.942;37.314;2022-07-03T12:20:00;99365.34;;;31.36;27.97
44138;BME280;29800;55.942;37.314;2022-07-03T12:22:35;99375.78;;;31.24;29.19
44138;BME280;29800;55.942;37.314;2022-07-03T12:25:07;99372.63;;;31.40;27.40
44138;BME280;29800;55.942;37.314;2022-07-03T12:27:37;99366.59;;;31.56;28.17
44138;BME280;29800;55.942;37.314;2022-07-03T12:30:08;99365.00;;;31.62;27.16
44138;BME280;29800;55.942;37.314;2022-07-03T12:32:36;99365.78;;;31.63;25.48
44138;BME280;29800;55.942;37.314;2022-07-03T12:35:02;99367.44;;;31.75;26.38
44138;BME280;29800;55.942;37.314;2022-07-03T12:37:37;99362.97;;;31.81;26.86
44138;BME280;29800;55.942;37.314;2022-07-03T12:40:08;99368.66;;;31.74;28.03
44138;BME280;29800;55.942;37.314;2022-07-03T12:42:44;99372.69;;;31.87;26.59
44138;BME280;29800;55.942;37.314;2022-07-03T12:45:15;99361.75;;;31.89;27.06
44138;BME280;29800;55.942;37.314;2022-07-03T12:47:42;99359.75;;;31.93;27.60
44138;BME280;29800;55.942;37.314;2022-07-03T12:50:08;99364.19;;;31.94;28.16
44138;BME280;29800;55.942;37.314;2022-07-03T12:52:49;99364.63;;;31.93;26.50
44138;BME280;29800;55.942;37.314;2022-07-03T12:55:28;99363.41;;;31.83;28.07
44138;BME280;29800;55.942;37.314;2022-07-03T12:58:16;99365.81;;;31.81;25.95
44138;BME280;29800;55.942;37.314;2022-07-03T13:01:01;99358.13;;;31.78;26.91
44138;BME280;29800;55.942;37.314;2022-07-03T13:03:29;99356.53;;;31.84;26.07
44138;BME280;29800;55.942;37.314;2022-07-03T13:05:56;99354.50;;;31.95;27.15
44138;BME280;29800;55.942;37.314;2022-07-03T13:08:23;99349.63;;;31.96;26.88
44138;BME280;29800;55.942;37.314;2022-07-03T13:10:59;99355.31;;;31.92;25.30
44138;BME280;29800;55.942;37.314;2022-07-03T13:13:26;99348.44;;;31.86;24.39
44138;BME280;29800;55.942;37.314;2022-07-03T13:15:52;99354.91;;;31.79;27.42
44138;BME280;29800;55.942;37.314;2022-07-03T13:18:18;99351.66;;;31.74;26.47
44138;BME280;29800;55.942;37.314;2022-07-03T13:20:44;99354.47;;;31.63;29.48
44138;BME280;29800;55.942;37.314;2022-07-03T13:23:11;99355.66;;;31.51;30.21
44138;BME280;29800;55.942;37.314;2022-07-03T13:25:38;99348.44;;;31.57;29.65
44138;BME280;29800;55.942;37.314;2022-07-03T13:28:12;99358.09;;;31.56;27.80
44138;BME280;29800;55.942;37.314;2022-07-03T13:30:40;99343.56;;;31.61;28.61
44138;BME280;29800;55.942;37.314;2022-07-03T13:33:06;99341.13;;;31.60;26.70
44138;BME280;29800;55.942;37.314;2022-07-03T13:35:33;99340.34;;;31.56;28.27
44138;BME280;29800;55.942;37.314;2022-07-03T13:37:59;99333.44;;;31.49;29.91
44138;BME280;29800;55.942;37.314;2022-07-03T13:40:26;99335.06;;;31.50;29.62
44138;BME280;29800;55.942;37.314;2022-07-03T13:42:52;99333.88;;;31.55;27.37
44138;BME280;29800;55.942;37.314;2022-07-03T13:45:18;99333.88;;;31.51;28.72
44138;BME280;29800;55.942;37.314;2022-07-03T13:47:44;99338.69;;;31.44;28.44
44138;BME280;29800;55.942;37.314;2022-07-03T13:50:10;99337.03;;;31.28;30.47
44138;BME280;29800;55.942;37.314;2022-07-03T13:52:37;99327.31;;;31.15;29.13
44138;BME280;29800;55.942;37.314;2022-07-03T13:55:04;99330.53;;;31.03;29.41
44138;BME280;29800;55.942;37.314;2022-07-03T13:57:30;99324.03;;;30.95;30.30
44138;BME280;29800;55.942;37.314;2022-07-03T13:59:59;99322.34;;;30.83;31.90
44138;BME280;29800;55.942;37.314;2022-07-03T14:02:25;99330.78;;;30.76;32.64
44138;BME280;29800;55.942;37.314;2022-07-03T14:04:51;99328.81;;;30.91;28.48
44138;BME280;29800;55.942;37.314;2022-07-03T14:07:17;99336.91;;;30.92;27.71
44138;BME280;29800;55.942;37.314;2022-07-03T14:09:43;99326.06;;;31.02;27.93
44138;BME280;29800;55.942;37.314;2022-07-03T14:12:09;99335.28;;;30.91;28.39